TimeBST,TemperatureF,Dew PointF,Humidity,Sea Level PressureIn,VisibilityMPH,Wind Direction,Wind SpeedMPH,Gust SpeedMPH,PrecipitationIn,Events,Conditions,WindDirDegrees,DateUTC
12:50 AM,45,38,68,30.14,31,NNW,12.7,,,,Scattered Clouds,330,2013-10-10 23:50:00
3:50 AM,47,38,61,30.06,17,North,21.9,,,,Partly Cloudy,350,2013-10-11 02:50:00
4:50 AM,46.4,39.2,76,30.04,6.2,North,18.4,-,N/A,,Partly Cloudy,350,2013-10-11 03:50:00
5:20 AM,46.4,39.2,76,30.04,6.2,North,19.6,34.5,N/A,,Partly Cloudy,350,2013-10-11 04:20:00
5:50 AM,46.4,39.2,76,30.01,6.2,North,19.6,34.5,N/A,,Partly Cloudy,350,2013-10-11 04:50:00
6:20 AM,46.4,41.0,81,30.01,-9999.0,North,18.4,34.5,N/A,,Clear,350,2013-10-11 05:20:00
6:50 AM,47,42,76,30.04,18,North,13.8,,,,,0,2013-10-11 05:50:00
6:50 AM,48.2,42.8,82,30.04,6.2,North,13.8,34.5,N/A,,Scattered Clouds,360,2013-10-11 05:50:00
7:20 AM,48.2,42.8,82,30.04,6.2,North,17.3,-,N/A,,Scattered Clouds,360,2013-10-11 06:20:00
7:50 AM,48.2,44.6,87,30.04,6.2,North,17.3,34.5,N/A,,Partly Cloudy,10,2013-10-11 06:50:00
8:20 AM,50.0,44.6,82,30.04,6.2,NNE,18.4,34.5,N/A,,Scattered Clouds,20,2013-10-11 07:20:00
8:50 AM,51.8,46.4,82,30.06,6.2,NNE,16.1,-,N/A,,Scattered Clouds,30,2013-10-11 07:50:00
9:20 AM,51.8,44.6,76,30.09,6.2,NNE,16.1,34.5,N/A,,Mostly Cloudy,30,2013-10-11 08:20:00
9:50 AM,53,45,67,30.11,19,NNE,15.0,,,,Mostly Cloudy,30,2013-10-11 08:50:00
9:50 AM,53.6,44.6,72,30.09,6.2,NNE,15.0,-,N/A,,Mostly Cloudy,30,2013-10-11 08:50:00
10:20 AM,53.6,46.4,77,30.09,6.2,NNE,15.0,34.5,N/A,,Scattered Clouds,20,2013-10-11 09:20:00
10:50 AM,55.4,46.4,72,30.12,6.2,NE,12.7,-,N/A,,Scattered Clouds,40,2013-10-11 09:50:00
11:20 AM,55.4,44.6,67,30.12,6.2,NE,17.3,34.5,N/A,,Scattered Clouds,40,2013-10-11 10:20:00
11:50 AM,55.4,44.6,67,30.12,6.2,NE,15.0,-,N/A,,Partly Cloudy,50,2013-10-11 10:50:00
12:20 PM,57.2,42.8,59,30.09,6.2,NE,16.1,34.5,N/A,,Partly Cloudy,40,2013-10-11 11:20:00
12:50 PM,60,43,42,30.12,22,NE,16.1,,,,Scattered Clouds,40,2013-10-11 11:50:00
12:50 PM,60.8,42.8,52,30.09,6.2,NE,16.1,-,N/A,,Partly Cloudy,40,2013-10-11 11:50:00
1:20 PM,59.0,41.0,51,30.09,6.2,NE,15.0,-,N/A,,Partly Cloudy,50,2013-10-11 12:20:00
1:50 PM,57.2,42.8,59,30.09,6.2,NE,9.2,-,N/A,,Light Drizzle,40,2013-10-11 12:50:00
2:20 PM,55.4,46.4,72,30.09,6.2,NNE,11.5,-,N/A,Rain,Light Rain,30,2013-10-11 13:20:00
2:50 PM,51.8,50.0,94,30.09,2.8,North,13.8,34.5,N/A,Rain,Light Rain,10,2013-10-11 13:50:00
3:20 PM,51.8,50.0,94,30.09,2.8,North,9.2,-,N/A,Rain,Light Rain,350,2013-10-11 14:20:00
3:50 PM,53,51,92,30.08,10,North,12.7,,,Rain,Light Rain,350,2013-10-11 14:50:00
3:50 PM,53.6,51.8,94,30.06,6.2,North,12.7,34.5,N/A,Rain,Light Rain,350,2013-10-11 14:50:00
4:20 PM,55.4,51.8,88,30.04,6.2,North,16.1,-,N/A,,Scattered Clouds,360,2013-10-11 15:20:00
4:50 PM,55.4,51.8,88,30.06,6.2,North,19.6,-,N/A,Rain,Light Rain,10,2013-10-11 15:50:00
5:20 PM,53.6,51.8,94,30.04,5.6,North,18.4,-,N/A,Rain,Light Rain,360,2013-10-11 16:20:00
5:50 PM,53.6,51.8,94,30.04,6.2,North,17.3,34.5,N/A,Rain,Light Rain,10,2013-10-11 16:50:00
6:50 PM,55,51,81,30.06,11,North,18.4,,,Rain,Rain,10,2013-10-11 17:50:00
6:50 PM,55.4,50.0,82,30.04,6.2,North,18.4,-,N/A,Rain,Light Rain,10,2013-10-11 17:50:00
7:20 PM,55.4,51.8,88,30.06,6.2,North,19.6,-,N/A,,Mostly Cloudy,10,2013-10-11 18:20:00
7:50 PM,55.4,51.8,88,30.06,6.2,NNE,19.6,31.1,N/A,,Overcast,20,2013-10-11 18:50:00
8:20 PM,55.4,50.0,82,30.06,6.2,NNE,18.4,-,N/A,,Overcast,20,2013-10-11 19:20:00
8:50 PM,55.4,50.0,82,30.06,6.2,NNE,17.3,-,N/A,,Overcast,20,2013-10-11 19:50:00
9:20 PM,55.4,50.0,82,30.06,-9999.0,NNE,17.3,-,N/A,,Clear,20,2013-10-11 20:20:00
9:50 PM,56,50,75,30.07,15,NNE,17.3,,,,Mostly Cloudy,20,2013-10-11 20:50:00
9:50 PM,55.4,50.0,82,30.06,6.2,NNE,17.3,-,N/A,,Mostly Cloudy,20,2013-10-11 20:50:00
10:20 PM,55.4,50.0,82,30.06,6.2,NNE,18.4,-,N/A,,Overcast,20,2013-10-11 21:20:00
10:50 PM,55.4,50.0,82,30.06,-9999.0,NNE,19.6,32.2,N/A,,Clear,20,2013-10-11 21:50:00
11:50 PM,55.4,50.0,82,30.04,-9999.0,NNE,19.6,31.1,N/A,,Clear,20,2013-10-11 22:50:00